Time;durP1;ratioP1;P1;durP2;ratioP2;P2;SDS_P1;SDS_P2;PMS_P1;PMS_P2;Temp;Humidity;BMP_temperature;BMP_pressure;BME280_temperature;BME280_humidity;BME280_pressure;Samples;Min_cycle;Max_cycle;Signal;HPM_P1;HPM_P2
2023/10/13 00:00:25;;;;;;;83.43;53.15;;;16.00;99.90;;;;;;5024085;28;20076;-79
2023/10/13 00:02:52;;;;;;;86.75;53.65;;;16.10;99.90;;;;;;5020337;28;20049;-80
2023/10/13 00:05:19;;;;;;;79.45;51.85;;;16.10;99.90;;;;;;5019504;28;20114;-80
2023/10/13 00:07:45;;;;;;;86.45;54.97;;;16.00;99.90;;;;;;5026267;28;20117;-80
2023/10/13 00:10:11;;;;;;;74.32;51.00;;;16.00;99.90;;;;;;5023208;28;20681;-80
2023/10/13 00:12:37;;;;;;;76.72;51.47;;;16.10;99.90;;;;;;5021986;28;20401;-80
2023/10/13 00:15:07;;;;;;;75.63;50.45;;;16.10;99.90;;;;;;5022948;28;20038;-80
2023/10/13 00:17:32;;;;;;;80.57;50.65;;;16.10;99.90;;;;;;5022226;28;20045;-80
2023/10/13 00:20:00;;;;;;;76.40;51.60;;;16.10;99.90;;;;;;5024556;28;20045;-80
2023/10/13 00:22:27;;;;;;;;;;;16.10;99.90;;;;;;5025387;28;20042;-80
2023/10/13 00:24:58;;;;;;;73.93;51.53;;;16.10;99.90;;;;;;5016500;28;20003;-80
2023/10/13 00:27:33;;;;;;;75.60;51.80;;;16.10;99.90;;;;;;5022608;28;20056;-80
2023/10/13 00:32:51;;;;;;;76.40;50.53;;;16.10;99.90;;;;;;5038625;28;20075;-80
2023/10/13 00:35:35;;;;;;;86.50;54.03;;;16.10;99.90;;;;;;5022964;28;20049;-80
2023/10/13 00:38:12;;;;;;;76.35;52.35;;;16.10;99.90;;;;;;5020266;28;20057;-80
2023/10/13 00:46:05;;;;;;;83.18;53.55;;;16.10;99.90;;;;;;5019177;28;20049;-80
2023/10/13 00:48:42;;;;;;;73.28;51.42;;;16.20;99.90;;;;;;5013598;28;20492;-80
2023/10/13 00:51:13;;;;;;;78.40;53.97;;;16.10;99.90;;;;;;5023834;28;20115;-80
2023/10/13 00:53:40;;;;;;;77.78;52.25;;;16.20;99.90;;;;;;5015384;28;20053;-80
2023/10/13 00:56:07;;;;;;;75.20;50.65;;;16.20;99.90;;;;;;5020174;28;20041;-80
2023/10/13 00:58:34;;;;;;;73.25;49.53;;;16.20;99.90;;;;;;5019993;28;20091;-80
2023/10/13 01:01:17;;;;;;;77.97;51.97;;;16.20;99.90;;;;;;5018747;28;20077;-79
2023/10/13 01:03:48;;;;;;;81.82;52.05;;;16.20;99.90;;;;;;5024364;28;20068;-80
2023/10/13 01:06:18;;;;;;;75.57;51.47;;;16.20;99.90;;;;;;5015681;28;20065;-80
2023/10/13 01:08:53;;;;;;;77.85;51.58;;;16.20;99.90;;;;;;5018828;28;20547;-80
2023/10/13 01:11:19;;;;;;;78.68;50.63;;;16.20;99.90;;;;;;5002586;28;20425;-80
2023/10/13 01:13:50;;;;;;;81.50;52.30;;;16.20;99.90;;;;;;5020469;28;20049;-80
2023/10/13 01:16:17;;;;;;;77.13;49.95;;;16.20;99.90;;;;;;5020060;28;20080;-79
2023/10/13 01:18:49;;;;;;;74.97;50.70;;;16.20;99.90;;;;;;5019458;28;20056;-80
2023/10/13 01:21:20;;;;;;;77.35;51.72;;;16.20;99.90;;;;;;5020801;28;20647;-80
2023/10/13 01:23:47;;;;;;;74.05;49.67;;;16.20;99.90;;;;;;5016751;28;20192;-80
2023/10/13 01:26:21;;;;;;;69.68;47.92;;;16.30;99.90;;;;;;5025922;28;20057;-80
2023/10/13 01:28:49;;;;;;;67.35;47.95;;;16.30;99.90;;;;;;5016987;28;20260;-80
2023/10/13 01:31:29;;;;;;;74.82;48.90;;;16.20;99.90;;;;;;5016151;28;20050;-79
2023/10/13 01:33:58;;;;;;;73.43;47.80;;;16.30;99.90;;;;;;5021588;28;20087;-78
2023/10/13 01:36:26;;;;;;;64.82;44.47;;;16.30;99.90;;;;;;5025371;28;20049;-80
2023/10/13 01:38:52;;;;;;;69.97;46.22;;;16.30;99.90;;;;;;5027730;28;20045;-79
2023/10/13 01:41:21;;;;;;;62.20;44.85;;;16.30;99.90;;;;;;5017481;28;20059;-79
2023/10/13 01:43:48;;;;;;;62.35;42.88;;;16.30;99.90;;;;;;5022147;28;20133;-79
2023/10/13 01:46:14;;;;;;;65.18;43.85;;;16.30;99.90;;;;;;5014109;28;20050;-80
2023/10/13 01:48:43;;;;;;;64.43;43.45;;;16.30;99.90;;;;;;5014409;28;20402;-80
2023/10/13 01:51:09;;;;;;;61.38;42.33;;;16.30;99.90;;;;;;5017488;28;20061;-80
2023/10/13 01:53:41;;;;;;;60.05;42.58;;;16.30;99.90;;;;;;5014591;28;20061;-80
2023/10/13 01:56:10;;;;;;;62.38;43.38;;;16.30;99.90;;;;;;5017035;28;20057;-79
2023/10/13 01:58:43;;;;;;;63.65;42.85;;;16.30;99.90;;;;;;5015431;28;20038;-80
2023/10/13 02:01:13;;;;;;;61.28;42.20;;;16.30;99.90;;;;;;5023388;28;20396;-79
2023/10/13 02:03:46;;;;;;;60.45;40.13;;;16.30;99.90;;;;;;5016724;28;20041;-79
2023/10/13 02:06:17;;;;;;;57.72;38.47;;;16.30;99.90;;;;;;5016154;28;20404;-80
2023/10/13 02:08:47;;;;;;;56.50;38.30;;;16.30;99.90;;;;;;5018957;28;20051;-80
2023/10/13 02:11:14;;;;;;;62.78;40.55;;;16.30;99.90;;;;;;5016502;28;20069;-79
2023/10/13 02:13:48;;;;;;;;;;;16.30;99.90;;;;;;5020100;28;20045;-80
2023/10/13 02:16:18;;;;;;;63.47;42.30;;;16.30;99.90;;;;;;5027811;28;19928;-80
2023/10/13 02:18:44;;;;;;;63.42;41.72;;;16.30;99.90;;;;;;5022358;28;20401;-79
2023/10/13 02:21:13;;;;;;;57.78;40.10;;;16.30;99.90;;;;;;5025785;28;20045;-80
2023/10/13 02:23:45;;;;;;;57.58;39.83;;;16.30;99.90;;;;;;5025895;28;20052;-79
2023/10/13 02:26:30;;;;;;;58.60;40.20;;;16.30;99.90;;;;;;5039932;28;20050;-80
2023/10/13 02:28:57;;;;;;;58.38;39.58;;;16.30;99.90;;;;;;5021305;28;20050;-80
2023/10/13 02:31:24;;;;;;;;;;;16.30;99.90;;;;;;5024755;28;20041;-80
2023/10/13 02:33:50;;;;;;;54.70;38.88;;;16.30;99.90;;;;;;5021273;28;20213;-80
2023/10/13 02:36:23;;;;;;;53.95;38.22;;;16.30;99.90;;;;;;5020333;28;20554;-80
2023/10/13 02:38:50;;;;;;;48.55;37.90;;;16.30;99.90;;;;;;5022262;28;20058;-79
2023/10/13 02:41:28;;;;;;;53.38;38.10;;;16.30;99.90;;;;;;5039817;28;20053;-80
2023/10/13 02:43:56;;;;;;;55.88;38.35;;;16.30;99.90;;;;;;5029550;28;20045;-79
2023/10/13 02:46:22;;;;;;;50.28;37.10;;;16.30;99.90;;;;;;5025638;28;20081;-80
2023/10/13 02:48:53;;;;;;;52.80;38.43;;;16.30;99.90;;;;;;5013482;28;20493;-80
2023/10/13 02:51:25;;;;;;;50.15;36.80;;;16.30;99.90;;;;;;5021565;28;20505;-82
2023/10/13 02:53:52;;;;;;;50.83;36.78;;;16.30;99.90;;;;;;5018348;28;20072;-82
2023/10/13 02:56:22;;;;;;;54.33;36.97;;;16.30;99.90;;;;;;5023460;28;20045;-83
2023/10/13 02:58:56;;;;;;;50.28;36.33;;;16.30;99.90;;;;;;5018826;28;20350;-83
2023/10/13 03:01:27;;;;;;;47.95;35.50;;;16.30;99.90;;;;;;5022136;28;20050;-83
2023/10/13 03:03:58;;;;;;;55.72;37.30;;;16.30;99.90;;;;;;5019312;28;20042;-82
2023/10/13 03:06:32;;;;;;;51.60;36.85;;;16.30;99.90;;;;;;5023235;28;20787;-82
2023/10/13 03:09:18;;;;;;;48.88;36.47;;;16.30;99.90;;;;;;5014758;28;20053;-82
2023/10/13 03:11:48;;;;;;;55.13;38.15;;;16.40;99.90;;;;;;5027726;28;20041;-82
2023/10/13 03:14:24;;;;;;;47.28;35.67;;;16.30;99.90;;;;;;5023249;28;20053;-82
2023/10/13 03:17:08;;;;;;;49.88;37.25;;;16.40;99.90;;;;;;5022214;28;20488;-82
2023/10/13 03:19:36;;;;;;;48.65;37.28;;;16.40;99.90;;;;;;5020716;28;20049;-82
2023/10/13 03:22:11;;;;;;;54.17;37.35;;;16.40;99.90;;;;;;5021669;28;20519;-82
2023/10/13 03:24:41;;;;;;;49.20;36.80;;;16.40;99.90;;;;;;5021188;28;20057;-82
2023/10/13 03:27:11;;;;;;;54.72;38.28;;;16.40;99.90;;;;;;5019072;28;20125;-82
2023/10/13 03:29:42;;;;;;;52.03;36.90;;;16.40;99.90;;;;;;5020289;28;20080;-82
2023/10/13 03:32:12;;;;;;;52.72;37.85;;;16.40;99.90;;;;;;5025185;28;20081;-82
2023/10/13 03:37:38;;;;;;;47.28;36.97;;;16.40;99.90;;;;;;5012592;28;20050;-81
2023/10/13 03:45:26;;;;;;;48.47;36.40;;;16.40;99.90;;;;;;5018198;28;20953;-82
2023/10/13 03:47:53;;;;;;;50.95;36.70;;;16.40;99.90;;;;;;5016350;28;20046;-82
2023/10/13 03:50:32;;;;;;;44.45;35.05;;;16.40;99.90;;;;;;5027149;28;20042;-82
2023/10/13 03:52:58;;;;;;;51.60;37.38;;;16.40;99.90;;;;;;5021942;28;20045;-82
2023/10/13 03:55:28;;;;;;;45.47;35.20;;;16.40;99.90;;;;;;5018159;28;20041;-82
2023/10/13 03:57:54;;;;;;;54.42;37.13;;;16.40;99.90;;;;;;5011967;28;20041;-82
2023/10/13 04:00:26;;;;;;;45.30;36.22;;;16.40;99.90;;;;;;5022471;28;20057;-83
2023/10/13 04:06:00;;;;;;;47.92;35.72;;;16.40;99.90;;;;;;5026590;28;20053;-82
2023/10/13 04:24:23;;;;;;;47.00;34.33;;;16.40;99.90;;;;;;5011567;28;20068;-83
2023/10/13 04:32:28;;;;;;;39.72;30.55;;;16.40;99.90;;;;;;5014492;28;20456;-83
2023/10/13 04:35:08;;;;;;;40.80;31.52;;;16.40;99.90;;;;;;5022146;28;20497;-83
2023/10/13 04:37:48;;;;;;;38.45;30.80;;;16.40;99.90;;;;;;5023594;28;20133;-82
2023/10/13 04:40:14;;;;;;;41.67;32.03;;;16.40;99.90;;;;;;5023776;28;20052;-83
2023/10/13 04:42:49;;;;;;;40.13;30.85;;;16.40;99.90;;;;;;5023136;28;20471;-83
2023/10/13 04:50:50;;;;;;;41.72;31.45;;;16.40;99.90;;;;;;5039565;28;20084;-83
2023/10/13 05:47:46;;;;;;;35.85;24.67;;;16.30;99.90;;;;;;5021182;28;20056;-82
2023/10/13 06:31:06;;;;;;;16.23;13.90;;;16.30;99.90;;;;;;5022265;28;20095;-80
2023/10/13 06:33:35;;;;;;;16.80;13.90;;;16.30;99.90;;;;;;5020910;28;20072;-80
2023/10/13 06:36:09;;;;;;;17.98;14.00;;;16.30;99.90;;;;;;5020267;28;20184;-80
2023/10/13 06:38:38;;;;;;;16.73;13.40;;;16.30;99.90;;;;;;5018589;28;20540;-80
2023/10/13 06:41:05;;;;;;;16.65;12.38;;;16.30;99.90;;;;;;5019042;28;20102;-80
2023/10/13 06:43:40;;;;;;;17.52;13.45;;;16.30;99.90;;;;;;5023279;28;20100;-80
2023/10/13 06:46:07;;;;;;;17.38;13.07;;;16.30;99.90;;;;;;5019843;28;20053;-80
2023/10/13 06:48:34;;;;;;;15.45;12.93;;;16.30;99.90;;;;;;5023849;28;20098;-77
2023/10/13 06:53:47;;;;;;;16.45;12.27;;;16.40;99.90;;;;;;5033899;28;20045;-81
2023/10/13 06:56:17;;;;;;;15.05;11.90;;;16.40;99.90;;;;;;5015493;28;20044;-83
2023/10/13 06:58:46;;;;;;;17.50;12.70;;;16.40;99.90;;;;;;5025049;28;20592;-83
2023/10/13 07:01:15;;;;;;;16.23;12.43;;;16.50;99.90;;;;;;5019791;28;20037;-86
2023/10/13 07:03:43;;;;;;;16.65;11.98;;;16.50;99.90;;;;;;5027256;28;20213;-72
2023/10/13 07:06:18;;;;;;;14.93;12.27;;;16.60;99.90;;;;;;5017358;28;20120;-80
2023/10/13 07:08:51;;;;;;;15.88;11.93;;;16.60;99.90;;;;;;5020415;28;20492;-81
2023/10/13 07:11:33;;;;;;;17.70;10.80;;;16.60;99.90;;;;;;5016882;28;20045;-81
2023/10/13 07:14:16;;;;;;;14.82;11.15;;;16.70;99.90;;;;;;5015284;28;20045;-81
2023/10/13 07:16:59;;;;;;;17.63;10.48;;;16.70;99.90;;;;;;5016931;28;20045;-83
2023/10/13 07:19:28;;;;;;;13.73;10.45;;;16.70;99.90;;;;;;5019775;28;20049;-83
2023/10/13 07:24:42;;;;;;;14.52;9.30;;;16.80;99.90;;;;;;5015718;28;20056;-82
2023/10/13 07:27:08;;;;;;;16.33;9.65;;;16.80;99.90;;;;;;5011540;28;20038;-81
2023/10/13 07:29:35;;;;;;;16.73;9.13;;;16.80;99.90;;;;;;5011211;28;20057;-84
2023/10/13 07:32:02;;;;;;;15.13;8.60;;;16.80;99.90;;;;;;5009992;28;20636;-81
2023/10/13 07:34:32;;;;;;;;;;;16.90;99.90;;;;;;5019031;28;20046;-80
2023/10/13 07:37:00;;;;;;;16.52;9.88;;;16.90;99.90;;;;;;5018513;28;19929;-84
2023/10/13 07:39:33;;;;;;;14.75;10.13;;;16.90;99.90;;;;;;5023476;28;20077;-85
2023/10/13 07:42:14;;;;;;;16.63;10.43;;;16.90;99.90;;;;;;5019517;28;20049;-86
2023/10/13 07:44:45;;;;;;;16.38;10.43;;;16.90;99.90;;;;;;5021320;28;20494;-86
2023/10/13 07:47:14;;;;;;;17.08;10.02;;;17.00;99.90;;;;;;5012754;28;20167;-84
2023/10/13 07:49:40;;;;;;;20.52;10.63;;;17.00;99.90;;;;;;5023989;28;20550;-81
2023/10/13 07:54:49;;;;;;;16.67;9.70;;;17.00;99.90;;;;;;5022530;28;20053;-80
2023/10/13 07:57:18;;;;;;;20.40;10.18;;;17.00;99.90;;;;;;5018082;28;20064;-79
2023/10/13 07:59:53;;;;;;;20.02;10.05;;;17.00;99.90;;;;;;5027358;28;20132;-79
2023/10/13 08:05:08;;;;;;;18.05;9.68;;;17.00;99.90;;;;;;5019682;28;20080;-87
2023/10/13 08:07:39;;;;;;;21.60;9.75;;;17.00;99.90;;;;;;5022514;28;20448;-84
2023/10/13 08:10:09;;;;;;;21.23;8.75;;;17.10;99.90;;;;;;5023692;28;20404;-82
2023/10/13 08:12:37;;;;;;;17.80;8.55;;;17.00;99.90;;;;;;5015126;28;20091;-81
2023/10/13 08:15:21;;;;;;;20.02;9.15;;;17.00;99.90;;;;;;5026802;28;20046;-84
2023/10/13 08:17:52;;;;;;;22.13;9.18;;;17.00;99.90;;;;;;5023335;28;20503;-82
2023/10/13 08:20:20;;;;;;;22.27;9.50;;;17.00;99.90;;;;;;5026938;28;20037;-81
2023/10/13 08:22:47;;;;;;;17.58;9.82;;;17.10;99.90;;;;;;5019787;28;20119;-80
2023/10/13 08:26:13;;;;;;;16.25;9.45;;;17.00;99.90;;;;;;5018840;28;20432;-80
2023/10/13 08:30:52;;;;;;;17.92;9.82;;;17.10;99.90;;;;;;5025732;28;20184;-77
2023/10/13 08:33:18;;;;;;;20.70;10.60;;;17.10;99.90;;;;;;5030092;28;20463;-77
2023/10/13 08:38:29;;;;;;;15.35;10.20;;;17.20;99.90;;;;;;5036942;28;20681;-87
2023/10/13 08:43:53;;;;;;;17.35;10.32;;;17.20;99.90;;;;;;5019183;28;20477;-82
2023/10/13 08:46:29;;;;;;;15.93;9.75;;;17.20;99.90;;;;;;5016959;28;20076;-84
2023/10/13 08:52:37;;;;;;;14.93;10.30;;;17.30;99.90;;;;;;5014969;28;20125;-79
2023/10/13 08:55:12;;;;;;;16.65;10.40;;;17.40;99.90;;;;;;5004925;28;20164;-80
2023/10/13 08:57:37;;;;;;;16.30;10.48;;;17.50;99.90;;;;;;5017076;28;20104;-81
2023/10/13 09:00:26;;;;;;;16.02;10.77;;;17.50;99.90;;;;;;5019342;28;20061;-84
2023/10/13 09:05:41;;;;;;;14.75;9.95;;;17.60;99.90;;;;;;5021070;28;20140;-87
2023/10/13 09:08:15;;;;;;;14.00;10.32;;;17.70;99.90;;;;;;5015334;28;20034;-87
2023/10/13 09:10:44;;;;;;;15.00;9.38;;;17.70;99.90;;;;;;5017349;28;20053;-81
2023/10/13 09:13:18;;;;;;;16.63;9.80;;;17.80;99.90;;;;;;5013129;28;20079;-81
2023/10/13 09:15:59;;;;;;;14.65;9.60;;;17.90;99.90;;;;;;5007854;28;20054;-75
2023/10/13 09:18:42;;;;;;;15.65;9.18;;;17.90;99.90;;;;;;5019525;28;20038;-79
2023/10/13 09:21:43;;;;;;;16.65;9.13;;;18.00;99.90;;;;;;5026692;28;20091;-79
2023/10/13 09:24:16;;;;;;;15.82;9.27;;;18.10;99.90;;;;;;5023195;28;20121;-79
2023/10/13 09:26:41;;;;;;;16.08;8.98;;;18.00;99.90;;;;;;5014598;28;20549;-78
2023/10/13 09:29:20;;;;;;;16.23;8.68;;;18.10;99.90;;;;;;5010953;28;20057;-82
2023/10/13 09:31:48;;;;;;;13.95;8.80;;;18.10;99.90;;;;;;5018344;28;20132;-82
2023/10/13 09:34:23;;;;;;;14.18;8.45;;;18.20;99.90;;;;;;5027110;28;20037;-75
2023/10/13 09:36:55;;;;;;;18.02;9.18;;;18.20;99.90;;;;;;5023856;28;20045;-81
2023/10/13 09:39:34;;;;;;;15.63;9.13;;;18.30;99.90;;;;;;5019989;28;20092;-81
2023/10/13 09:42:01;;;;;;;16.48;8.32;;;18.30;99.90;;;;;;5021735;28;20045;-79
2023/10/13 09:44:30;;;;;;;13.70;8.30;;;18.40;99.90;;;;;;5015925;28;20057;-80
2023/10/13 09:47:07;;;;;;;14.65;8.25;;;18.40;99.90;;;;;;5017420;28;20112;-82
2023/10/13 09:49:45;;;;;;;12.95;8.55;;;18.40;99.90;;;;;;5012622;28;20560;-82
2023/10/13 09:52:20;;;;;;;16.08;9.40;;;18.40;99.90;;;;;;5011464;28;20038;-83
2023/10/13 09:54:59;;;;;;;18.00;9.43;;;18.40;99.90;;;;;;5021001;28;20041;-80
2023/10/13 09:57:34;;;;;;;18.48;9.25;;;18.40;99.90;;;;;;5006842;28;20049;-79
2023/10/13 10:03:05;;;;;;;17.67;8.40;;;18.40;99.90;;;;;;5012901;28;20049;-79
2023/10/13 10:05:35;;;;;;;18.98;8.43;;;18.40;99.90;;;;;;5027398;28;20821;-79
2023/10/13 10:08:01;;;;;;;17.95;7.15;;;18.40;99.90;;;;;;5026045;28;20071;-79
2023/10/13 10:11:09;;;;;;;13.55;7.80;;;18.40;99.90;;;;;;5018899;28;20046;-79
2023/10/13 10:13:54;;;;;;;16.42;8.07;;;18.50;99.90;;;;;;5003213;28;20116;-81
2023/10/13 10:16:35;;;;;;;15.18;7.72;;;18.50;99.90;;;;;;5018208;28;20045;-77
2023/10/13 10:19:02;;;;;;;16.05;7.78;;;18.50;99.90;;;;;;5021049;28;20081;-81
2023/10/13 10:21:35;;;;;;;15.73;8.05;;;18.60;99.90;;;;;;5025143;28;20057;-78
2023/10/13 10:24:07;;;;;;;18.27;8.38;;;18.60;99.90;;;;;;5026184;28;20046;-76
2023/10/13 10:26:33;;;;;;;17.13;8.95;;;18.60;99.90;;;;;;5014254;28;20040;-78
2023/10/13 10:29:01;;;;;;;17.77;8.02;;;18.60;99.90;;;;;;5019766;28;20045;-79
2023/10/13 10:31:40;;;;;;;13.57;7.80;;;18.60;99.90;;;;;;5016929;28;20120;-73
2023/10/13 10:34:13;;;;;;;18.45;8.27;;;18.70;99.90;;;;;;5028093;28;20053;-74
2023/10/13 10:36:42;;;;;;;17.15;8.02;;;18.70;99.90;;;;;;5023421;28;20136;-74
2023/10/13 10:39:11;;;;;;;15.40;8.07;;;18.70;99.90;;;;;;5016820;28;20110;-76
2023/10/13 10:46:57;;;;;;;18.45;8.02;;;18.80;99.90;;;;;;5025532;28;20080;-80
2023/10/13 10:49:28;;;;;;;16.48;8.50;;;18.80;99.90;;;;;;5014272;28;20768;-80
2023/10/13 10:52:01;;;;;;;16.55;7.50;;;18.90;99.90;;;;;;5023043;28;20049;-81
2023/10/13 10:54:31;;;;;;;16.58;8.30;;;18.90;99.90;;;;;;5020466;28;20037;-82
2023/10/13 10:57:10;;;;;;;15.30;8.48;;;18.90;99.90;;;;;;5027549;28;20041;-82
2023/10/13 10:59:39;;;;;;;16.38;7.68;;;19.00;99.90;;;;;;5019005;28;20045;-82
2023/10/13 11:02:15;;;;;;;13.95;7.65;;;19.00;99.90;;;;;;5020620;28;20056;-82
2023/10/13 11:04:50;;;;;;;20.83;8.20;;;19.00;99.90;;;;;;5025082;28;20053;-84
2023/10/13 11:07:24;;;;;;;21.42;8.40;;;19.00;99.90;;;;;;5019899;28;20378;-80
2023/10/13 11:09:52;;;;;;;15.63;7.88;;;19.10;99.90;;;;;;5023585;28;20038;-82
2023/10/13 11:12:26;;;;;;;20.23;8.90;;;19.10;99.90;;;;;;5015493;28;20045;-84
2023/10/13 11:15:02;;;;;;;16.30;7.35;;;19.10;99.90;;;;;;5021039;28;20057;-86
2023/10/13 11:17:39;;;;;;;21.48;7.93;;;19.20;99.90;;;;;;5036990;28;20058;-79
2023/10/13 11:20:15;;;;;;;;;;;19.20;99.90;;;;;;5020480;28;20061;-81
2023/10/13 11:22:43;;;;;;;;;;;19.20;99.90;;;;;;5017241;28;19955;-80
2023/10/13 11:25:29;;;;;;;20.02;7.78;;;19.20;99.90;;;;;;5021181;28;19933;-85
2023/10/13 11:27:59;;;;;;;18.92;7.82;;;19.30;99.90;;;;;;5026246;28;20044;-87
2023/10/13 11:30:31;;;;;;;18.77;7.43;;;19.30;99.90;;;;;;5030009;28;20044;-85
2023/10/13 11:32:58;;;;;;;17.77;7.70;;;19.30;99.90;;;;;;5022424;28;20041;-82
2023/10/13 11:35:24;;;;;;;19.70;7.72;;;19.40;99.90;;;;;;5027659;28;20357;-85
2023/10/13 11:38:03;;;;;;;19.02;7.65;;;19.40;99.90;;;;;;5028000;28;20107;-84
2023/10/13 11:40:59;;;;;;;16.58;7.88;;;19.40;99.90;;;;;;5023202;28;20943;-76
2023/10/13 11:43:26;;;;;;;15.15;8.45;;;19.40;99.90;;;;;;5016481;28;20081;-87
2023/10/13 11:46:00;;;;;;;16.65;7.50;;;19.50;99.90;;;;;;5023647;28;20041;-84
2023/10/13 11:48:38;;;;;;;18.95;7.95;;;19.50;99.90;;;;;;5016786;28;20120;-82
2023/10/13 11:51:09;;;;;;;18.55;8.13;;;19.50;99.90;;;;;;5024597;28;20406;-90
2023/10/13 11:53:38;;;;;;;18.02;7.90;;;19.60;99.90;;;;;;5019629;28;20089;-88
2023/10/13 11:56:09;;;;;;;17.50;7.45;;;19.60;99.90;;;;;;5014586;28;20041;-75
2023/10/13 11:58:36;;;;;;;19.40;7.72;;;19.60;99.90;;;;;;5018189;28;20128;-83
2023/10/13 12:01:19;;;;;;;15.98;7.97;;;19.70;99.90;;;;;;5011571;28;20265;-86
2023/10/13 12:11:50;;;;;;;15.98;8.20;;;19.80;99.90;;;;;;5019776;28;20128;-87
2023/10/13 12:14:17;;;;;;;15.43;7.93;;;19.80;99.90;;;;;;5022439;28;20711;-82
2023/10/13 12:16:52;;;;;;;16.55;7.55;;;19.80;99.90;;;;;;5027203;28;20532;-88
2023/10/13 12:19:23;;;;;;;20.23;7.95;;;19.80;99.90;;;;;;5015419;28;20128;-83
2023/10/13 12:21:55;;;;;;;19.92;7.88;;;19.80;99.90;;;;;;5022560;28;20545;-80
2023/10/13 12:27:20;;;;;;;17.17;7.82;;;19.80;99.90;;;;;;5014588;28;20062;-81
2023/10/13 12:29:51;;;;;;;17.63;7.97;;;19.80;99.90;;;;;;5024084;28;20038;-82
2023/10/13 12:32:22;;;;;;;17.17;7.90;;;19.80;99.90;;;;;;5013622;28;20106;-84
2023/10/13 12:49:14;;;;;;;21.58;8.23;;;19.90;99.90;;;;;;5021974;28;20051;-89
2023/10/13 12:51:50;;;;;;;20.27;8.38;;;19.90;99.90;;;;;;5028333;28;20045;-89
2023/10/13 12:54:35;;;;;;;23.92;8.05;;;19.90;99.90;;;;;;5015477;28;20097;-89
2023/10/13 12:57:01;;;;;;;19.85;8.40;;;19.90;99.90;;;;;;5020322;28;20045;-89
2023/10/13 12:59:26;;;;;;;20.20;7.72;;;20.00;99.90;;;;;;5017741;28;20053;-89
2023/10/13 13:01:53;;;;;;;20.77;7.40;;;20.00;99.90;;;;;;5021922;28;20045;-88
2023/10/13 13:04:25;;;;;;;16.70;8.23;;;20.00;99.90;;;;;;5021805;28;20068;-89
2023/10/13 13:06:53;;;;;;;21.58;8.27;;;20.10;99.90;;;;;;5013347;28;20058;-89
2023/10/13 13:09:25;;;;;;;22.25;8.35;;;20.00;99.90;;;;;;5018688;28;20048;-88
2023/10/13 13:11:56;;;;;;;17.60;8.30;;;20.10;99.90;;;;;;5005379;28;20061;-83
2023/10/13 13:14:28;;;;;;;20.75;8.88;;;20.10;99.90;;;;;;5018308;28;20049;-89
2023/10/13 13:17:06;;;;;;;18.23;7.85;;;20.10;99.90;;;;;;5024618;28;20029;-88
2023/10/13 13:19:36;;;;;;;17.17;8.48;;;20.10;99.90;;;;;;5026252;28;20088;-88
2023/10/13 13:22:11;;;;;;;17.83;7.88;;;20.10;99.90;;;;;;5020207;28;20069;-83
2023/10/13 13:24:43;;;;;;;19.08;8.23;;;20.10;99.90;;;;;;5023575;28;20049;-79
2023/10/13 13:27:10;;;;;;;18.48;8.13;;;20.20;99.90;;;;;;5018037;28;20069;-84
2023/10/13 13:29:42;;;;;;;17.17;8.32;;;20.20;99.90;;;;;;5016501;28;20107;-89
2023/10/13 13:32:17;;;;;;;19.23;7.90;;;20.20;99.90;;;;;;5023211;28;20095;-86
2023/10/13 13:34:44;;;;;;;19.80;8.05;;;20.20;99.90;;;;;;5011437;28;20467;-85
2023/10/13 13:37:12;;;;;;;20.75;8.85;;;20.20;99.90;;;;;;5017243;28;20073;-77
2023/10/13 13:39:45;;;;;;;19.70;8.07;;;20.20;99.90;;;;;;5010257;28;20060;-84
2023/10/13 13:42:17;;;;;;;17.13;7.90;;;20.20;99.90;;;;;;5017015;28;20045;-86
2023/10/13 13:44:46;;;;;;;18.13;7.88;;;20.20;99.90;;;;;;5021167;28;20438;-84
2023/10/13 13:47:16;;;;;;;17.35;7.60;;;20.30;99.90;;;;;;5019389;28;20173;-86
2023/10/13 13:49:52;;;;;;;18.48;7.78;;;20.30;99.90;;;;;;5016157;28;20393;-82
2023/10/13 13:52:21;;;;;;;16.77;7.75;;;20.30;99.90;;;;;;5012639;28;20049;-85
2023/10/13 13:54:47;;;;;;;16.90;7.88;;;20.30;99.90;;;;;;5019370;28;20057;-83
2023/10/13 13:57:13;;;;;;;18.85;8.20;;;20.30;99.90;;;;;;5023104;28;20053;-82
2023/10/13 13:59:39;;;;;;;18.30;7.40;;;20.30;99.90;;;;;;5017819;28;20386;-84
2023/10/13 14:02:19;;;;;;;20.90;8.47;;;20.30;99.90;;;;;;5010006;28;20037;-86
2023/10/13 14:04:46;;;;;;;19.77;8.45;;;20.20;99.90;;;;;;5013685;28;20300;-86
2023/10/13 14:07:14;;;;;;;19.08;8.70;;;20.20;99.90;;;;;;5016055;28;20474;-85
2023/10/13 14:09:43;;;;;;;22.38;8.57;;;20.20;99.90;;;;;;5026410;28;20130;-89
2023/10/13 14:15:19;;;;;;;18.52;8.68;;;20.10;99.90;;;;;;4972632;28;20050;-81
2023/10/13 14:17:48;;;;;;;21.05;8.30;;;20.00;99.90;;;;;;4983018;28;20117;-82
2023/10/13 14:20:18;;;;;;;19.27;8.70;;;20.00;99.90;;;;;;5001600;28;20114;-88
2023/10/13 14:22:47;;;;;;;21.98;9.18;;;19.90;99.90;;;;;;5020461;28;20060;-84
2023/10/13 14:25:14;;;;;;;22.17;9.43;;;19.90;99.90;;;;;;5022335;28;20082;-86
2023/10/13 14:27:41;;;;;;;19.45;8.55;;;19.90;99.90;;;;;;5014829;28;20057;-83
2023/10/13 14:30:07;;;;;;;17.83;9.07;;;19.80;99.90;;;;;;5016078;28;20485;-83
2023/10/13 14:32:40;;;;;;;24.42;9.25;;;19.80;99.90;;;;;;5016152;28;20578;-83
2023/10/13 14:35:14;;;;;;;16.65;8.30;;;19.80;99.90;;;;;;5020887;28;20129;-83
2023/10/13 14:37:40;;;;;;;21.73;8.60;;;19.70;99.90;;;;;;5021738;28;20065;-84
2023/10/13 14:40:12;;;;;;;16.65;8.23;;;19.70;99.90;;;;;;5018240;28;20081;-83
2023/10/13 14:42:40;;;;;;;17.48;8.68;;;19.60;99.90;;;;;;5023632;28;20128;-84
2023/10/13 14:45:16;;;;;;;16.63;9.13;;;19.60;99.90;;;;;;5023179;28;20045;-83
2023/10/13 14:47:43;;;;;;;20.43;9.63;;;19.60;99.90;;;;;;5013520;28;20129;-84
2023/10/13 14:50:19;;;;;;;19.63;9.15;;;19.50;99.90;;;;;;5024532;28;20473;-88
2023/10/13 14:52:49;;;;;;;20.67;8.82;;;19.40;99.90;;;;;;5017089;28;20045;-83
2023/10/13 14:55:37;;;;;;;21.95;9.60;;;19.40;99.90;;;;;;5013656;28;20042;-86
2023/10/13 14:58:04;;;;;;;22.90;9.93;;;19.40;99.90;;;;;;5009415;28;20143;-86
2023/10/13 15:00:31;;;;;;;18.30;9.55;;;19.30;99.90;;;;;;5016234;28;20064;-88
2023/10/13 15:03:01;;;;;;;;;;;19.20;99.90;;;;;;5021395;28;20052;-88
2023/10/13 15:05:29;;;;;;;25.25;10.75;;;19.20;99.90;;;;;;5019632;28;19925;-87
2023/10/13 15:07:55;;;;;;;22.60;10.48;;;19.10;99.90;;;;;;5021551;28;20401;-88
2023/10/13 15:10:24;;;;;;;24.60;10.40;;;19.10;99.90;;;;;;5021870;28;20049;-77
2023/10/13 15:12:50;;;;;;;21.90;10.55;;;19.00;99.90;;;;;;5019544;28;20041;-83
2023/10/13 15:15:19;;;;;;;21.42;9.25;;;19.00;99.90;;;;;;5018142;28;20053;-83
2023/10/13 15:17:45;;;;;;;18.92;9.55;;;19.00;99.90;;;;;;5013938;28;20117;-77
2023/10/13 15:20:17;;;;;;;18.80;9.20;;;18.90;99.90;;;;;;5014888;28;20548;-80
2023/10/13 15:22:44;;;;;;;18.73;10.23;;;18.90;99.90;;;;;;5017418;28;20056;-91
2023/10/13 15:25:38;;;;;;;23.83;10.77;;;18.90;99.90;;;;;;5019694;28;20064;-87
2023/10/13 15:28:03;;;;;;;19.70;9.57;;;18.90;99.90;;;;;;5019992;28;20370;-88
2023/10/13 15:30:44;;;;;;;20.98;9.65;;;18.80;99.90;;;;;;5021947;28;20057;-92
2023/10/13 15:33:11;;;;;;;21.77;9.73;;;18.80;99.90;;;;;;5021475;28;20465;-80
2023/10/13 15:35:45;;;;;;;24.77;9.77;;;18.80;99.90;;;;;;5013630;28;20572;-83
2023/10/13 15:38:14;;;;;;;21.48;9.05;;;18.70;99.90;;;;;;5018353;28;20053;-85
2023/10/13 15:40:42;;;;;;;19.95;10.43;;;18.70;99.90;;;;;;5023588;28;20049;-82
2023/10/13 15:43:08;;;;;;;20.80;9.43;;;18.70;99.90;;;;;;5022955;28;20041;-84
2023/10/13 15:45:39;;;;;;;18.75;8.70;;;18.70;99.90;;;;;;5015905;28;20169;-84
2023/10/13 15:48:05;;;;;;;19.42;9.13;;;18.70;99.90;;;;;;5027908;28;20045;-83
2023/10/13 15:50:41;;;;;;;17.77;8.95;;;18.70;99.90;;;;;;5022000;28;20042;-83
2023/10/13 15:53:12;;;;;;;18.60;9.00;;;18.60;99.90;;;;;;5017970;28;20057;-83
2023/10/13 15:55:38;;;;;;;18.55;9.32;;;18.60;99.90;;;;;;5025292;28;20061;-84
2023/10/13 15:58:09;;;;;;;22.40;9.98;;;18.60;99.90;;;;;;5024826;28;20520;-84
2023/10/13 16:00:36;;;;;;;18.77;8.93;;;18.60;99.90;;;;;;5015564;28;20052;-84
2023/10/13 16:03:03;;;;;;;24.27;9.50;;;18.60;99.90;;;;;;5017173;28;20042;-82
2023/10/13 16:05:29;;;;;;;;;;;18.60;99.90;;;;;;5024537;28;20311;-83
2023/10/13 16:07:55;;;;;;;21.35;8.80;;;18.50;99.90;;;;;;5024449;28;20271;-83
2023/10/13 16:10:23;;;;;;;18.98;9.15;;;18.50;99.90;;;;;;5018014;28;20517;-83
2023/10/13 16:12:49;;;;;;;17.17;8.95;;;18.50;99.90;;;;;;5020570;28;20041;-83
2023/10/13 16:15:15;;;;;;;18.23;9.98;;;18.50;99.90;;;;;;5021439;28;20485;-83
2023/10/13 16:17:41;;;;;;;15.25;8.55;;;18.50;99.90;;;;;;5019394;28;20091;-84
2023/10/13 16:20:15;;;;;;;20.83;10.43;;;18.50;99.90;;;;;;5019508;28;20037;-84